createdAt,value
2018-06-02T00:01:01.436Z,51.99
2018-06-02T00:03:29.593Z,52.06
2018-06-02T00:05:58.074Z,52.37
2018-06-02T00:08:26.128Z,52.71
2018-06-02T00:10:53.951Z,52.86
2018-06-02T00:13:22.049Z,52.97
2018-06-02T00:15:50.333Z,52.84
2018-06-02T00:18:18.430Z,52.62
2018-06-02T00:20:46.524Z,52.64
2018-06-02T00:23:14.702Z,52.63
2018-06-02T00:25:42.848Z,52.57
2018-06-02T00:28:11.128Z,52.56
2018-06-02T00:30:39.192Z,52.69
2018-06-02T00:33:07.013Z,52.90
2018-06-02T00:35:34.954Z,53.20
2018-06-02T00:38:03.204Z,53.31
2018-06-02T00:40:31.110Z,53.38
2018-06-02T00:42:59.178Z,53.41
2018-06-02T00:45:27.270Z,53.46
2018-06-02T00:47:55.442Z,53.55
2018-06-02T00:50:23.628Z,53.36
2018-06-02T00:52:51.834Z,53.16
2018-06-02T00:55:19.932Z,52.76
2018-06-02T00:57:47.974Z,52.71
2018-06-02T01:00:16.396Z,52.75
2018-06-02T01:02:44.428Z,52.77
2018-06-02T01:05:12.295Z,52.71
2018-06-02T01:07:40.677Z,52.76
2018-06-02T01:10:08.742Z,52.92
2018-06-02T01:12:36.658Z,53.00
2018-06-02T01:15:04.806Z,53.06
2018-06-02T01:17:32.851Z,53.09
2018-06-02T01:20:00.721Z,53.00
2018-06-02T01:22:29.153Z,52.92
2018-06-02T01:24:57.270Z,52.99
2018-06-02T01:27:25.349Z,52.88
2018-06-02T01:29:53.515Z,52.76
2018-06-02T01:32:21.415Z,52.91
2018-06-02T01:34:49.299Z,53.05
2018-06-02T01:37:17.688Z,53.12
2018-06-02T01:39:46.108Z,53.21
2018-06-02T01:42:14.006Z,53.25
2018-06-02T01:44:42.150Z,53.33
2018-06-02T01:47:10.223Z,53.38
2018-06-02T01:49:38.037Z,53.32
2018-06-02T01:52:06.263Z,53.32
2018-06-02T01:54:34.436Z,53.49
2018-06-02T01:57:02.344Z,53.79
2018-06-02T01:59:30.583Z,53.93
2018-06-02T02:01:58.700Z,53.91
2018-06-02T02:04:26.711Z,53.77
2018-06-02T02:06:54.767Z,53.75
2018-06-02T02:09:22.930Z,53.68
2018-06-02T02:11:50.730Z,53.80
2018-06-02T02:14:18.726Z,53.70
2018-06-02T02:16:46.797Z,53.75
2018-06-02T02:19:14.636Z,53.95
2018-06-02T02:21:42.701Z,54.11
2018-06-02T02:24:11.416Z,54.09
2018-06-02T02:26:39.455Z,54.14
2018-06-02T02:29:08.050Z,54.19
2018-06-02T02:31:36.320Z,54.26
2018-06-02T02:34:04.186Z,54.43
2018-06-02T02:36:34.411Z,54.39
2018-06-02T02:39:02.487Z,54.32
2018-06-02T02:41:31.373Z,54.47
2018-06-02T02:43:59.825Z,54.80
2018-06-02T02:46:27.671Z,54.83
2018-06-02T02:48:55.481Z,54.78
2018-06-02T02:51:23.859Z,54.81
2018-06-02T02:53:51.704Z,54.88
2018-06-02T02:56:19.601Z,54.75
2018-06-02T02:58:49.097Z,54.77
2018-06-02T03:01:17.732Z,54.77
2018-06-02T03:03:45.544Z,54.83
2018-06-02T03:06:13.720Z,54.91
2018-06-02T03:08:42.454Z,54.79
2018-06-02T03:11:10.682Z,54.62
2018-06-02T03:13:38.911Z,54.43
2018-06-02T03:16:06.925Z,54.45
2018-06-02T03:18:35.106Z,54.79
2018-06-02T03:21:03.208Z,54.83
2018-06-02T03:23:31.165Z,54.86
2018-06-02T03:25:59.443Z,54.97
2018-06-02T03:28:27.592Z,54.72
2018-06-02T03:30:55.768Z,54.56
2018-06-02T03:33:23.861Z,54.35
2018-06-02T03:35:52.012Z,54.22
2018-06-02T03:38:20.083Z,54.83
2018-06-02T03:40:48.368Z,55.59
2018-06-02T03:43:16.375Z,55.77
2018-06-02T03:45:44.275Z,56.14
2018-06-02T03:48:12.388Z,56.22
2018-06-02T03:50:40.285Z,56.21
2018-06-02T03:53:08.655Z,56.22
2018-06-02T03:55:36.787Z,56.23
2018-06-02T03:58:04.755Z,56.44
2018-06-02T04:00:32.676Z,56.71
2018-06-02T04:03:00.769Z,56.91
2018-06-02T04:05:29.125Z,56.96
2018-06-02T04:07:57.038Z,56.86
2018-06-02T04:10:25.323Z,56.84
2018-06-02T04:12:53.279Z,56.78
2018-06-02T04:15:21.303Z,56.60
2018-06-02T04:17:49.468Z,56.40
2018-06-02T04:26:03.587Z,55.82
2018-06-02T04:28:31.679Z,55.76
2018-06-02T04:30:59.859Z,55.88
2018-06-02T04:33:28.241Z,56.05
2018-06-02T04:35:56.447Z,56.06
2018-06-02T04:38:24.475Z,55.73
2018-06-02T04:40:52.900Z,55.78
2018-06-02T04:43:20.662Z,55.81
2018-06-02T04:45:48.591Z,55.72
2018-06-02T04:48:16.953Z,55.59
2018-06-02T04:50:44.770Z,55.64
2018-06-02T04:53:12.945Z,55.52
2018-06-02T04:55:41.360Z,55.25
2018-06-02T04:58:09.149Z,54.94
2018-06-02T05:00:37.015Z,54.66
2018-06-02T05:03:05.322Z,54.37
2018-06-02T05:05:33.259Z,54.12
2018-06-02T05:08:01.220Z,53.76
2018-06-02T05:10:29.614Z,53.48
2018-06-02T05:12:57.448Z,53.27
2018-06-02T05:15:25.646Z,52.84
2018-06-02T05:17:54.153Z,52.64
2018-06-02T05:20:22.461Z,52.25
2018-06-02T05:22:50.365Z,52.00
2018-06-02T05:25:18.755Z,51.86
2018-06-02T05:27:46.600Z,51.61
2018-06-02T05:30:14.608Z,51.45
2018-06-02T05:32:42.822Z,51.32
2018-06-02T05:35:10.795Z,51.17
2018-06-02T05:37:38.539Z,50.91
2018-06-02T05:40:06.699Z,50.43
2018-06-02T05:42:34.741Z,49.96
2018-06-02T05:45:02.494Z,49.50
2018-06-02T05:47:30.666Z,49.12
2018-06-02T05:49:58.686Z,48.95
2018-06-02T05:52:26.465Z,48.48
2018-06-02T05:54:54.602Z,47.92
2018-06-02T05:57:22.513Z,47.75
2018-06-02T05:59:50.382Z,48.41
2018-06-02T06:02:18.970Z,48.72
2018-06-02T06:04:46.861Z,48.79
2018-06-02T06:07:14.918Z,48.73
2018-06-02T06:09:43.017Z,48.64
2018-06-02T06:12:10.858Z,48.53
2018-06-02T06:14:38.761Z,48.19
2018-06-02T06:17:06.870Z,47.99
2018-06-02T06:19:34.770Z,47.71
2018-06-02T06:22:02.501Z,47.54
2018-06-02T06:24:30.671Z,47.29
2018-06-02T06:26:58.526Z,47.07
2018-06-02T06:29:26.330Z,46.81
2018-06-02T06:31:54.612Z,46.62
2018-06-02T06:34:22.847Z,46.37
2018-06-02T06:36:50.634Z,45.99
2018-06-02T06:39:19.073Z,45.73
2018-06-02T06:41:46.850Z,45.49
2018-06-02T06:44:14.884Z,45.08
2018-06-02T06:46:42.956Z,44.79
2018-06-02T06:49:10.745Z,44.19
2018-06-02T06:51:38.597Z,43.80
2018-06-02T06:54:06.863Z,42.54
2018-06-02T06:56:34.619Z,42.19
2018-06-02T06:59:02.453Z,41.56
2018-06-02T07:01:30.826Z,40.58
2018-06-02T07:03:58.605Z,39.22
2018-06-02T07:06:26.323Z,38.72
2018-06-02T07:08:54.810Z,38.63
2018-06-02T07:11:22.581Z,38.49
2018-06-02T07:13:50.642Z,37.78
2018-06-02T07:16:19.232Z,37.60
2018-06-02T07:18:47.183Z,37.22
2018-06-02T07:21:14.899Z,36.37
2018-06-02T07:23:42.927Z,36.00
2018-06-02T07:26:10.801Z,35.96
2018-06-02T07:28:38.570Z,35.68
2018-06-02T07:31:06.996Z,35.63
2018-06-02T07:33:34.833Z,33.94
2018-06-02T07:36:02.773Z,32.01
2018-06-02T07:38:31.073Z,31.12
2018-06-02T07:40:58.773Z,30.65
2018-06-02T07:43:26.720Z,30.07
2018-06-02T07:45:54.878Z,30.04
2018-06-02T07:48:22.640Z,29.29
2018-06-02T07:50:50.594Z,29.14
2018-06-02T07:53:18.874Z,28.54
2018-06-02T07:55:46.973Z,28.44
2018-06-02T07:58:14.792Z,28.01
2018-06-02T08:00:42.929Z,28.06
2018-06-02T08:03:10.740Z,28.44
2018-06-02T08:05:38.712Z,29.44
2018-06-02T08:08:07.002Z,30.15
2018-06-02T08:10:34.819Z,30.26
2018-06-02T08:13:02.583Z,29.92
2018-06-02T08:15:30.844Z,29.86
2018-06-02T08:17:58.868Z,30.35
2018-06-02T08:20:26.605Z,30.58
2018-06-02T08:22:54.811Z,30.20
2018-06-02T08:25:22.675Z,30.40
2018-06-02T08:27:50.443Z,30.62
2018-06-02T08:30:19.013Z,30.30
2018-06-02T08:32:46.752Z,30.11
2018-06-02T08:35:14.779Z,30.44
2018-06-02T08:37:43.397Z,30.69
2018-06-02T08:40:11.492Z,31.20
2018-06-02T08:42:39.410Z,31.47
2018-06-02T08:45:07.617Z,31.68
2018-06-02T08:47:35.734Z,31.37
2018-06-02T08:50:03.810Z,31.13
2018-06-02T08:52:31.729Z,31.21
2018-06-02T08:54:59.710Z,31.02
2018-06-02T08:57:27.773Z,30.94
2018-06-02T08:59:55.844Z,30.90
2018-06-02T09:02:23.848Z,31.28
2018-06-02T09:04:51.736Z,31.53
2018-06-02T09:07:19.993Z,31.69
2018-06-02T09:09:49.179Z,31.15
2018-06-02T09:12:17.215Z,31.12
2018-06-02T09:14:45.121Z,31.13
2018-06-02T09:17:12.897Z,31.03
2018-06-02T09:19:40.946Z,30.55
2018-06-02T09:22:08.893Z,30.35
2018-06-02T09:24:36.653Z,30.09
2018-06-02T09:27:04.727Z,30.18
2018-06-02T09:29:32.539Z,30.57
2018-06-02T09:32:00.320Z,31.04
2018-06-02T09:34:28.136Z,30.88
2018-06-02T09:36:56.151Z,30.99
2018-06-02T09:39:24.232Z,30.68
2018-06-02T09:41:52.394Z,30.39
2018-06-02T09:44:20.536Z,30.41
2018-06-02T09:46:48.281Z,29.55
2018-06-02T09:49:16.302Z,29.27
2018-06-02T09:51:44.171Z,29.70
2018-06-02T09:54:11.981Z,29.26
2018-06-02T09:56:39.925Z,29.86
2018-06-02T09:59:08.293Z,29.44
2018-06-02T10:01:36.166Z,29.40
2018-06-02T10:04:03.958Z,29.66
2018-06-02T10:06:32.172Z,29.55
2018-06-02T10:08:59.958Z,29.16
2018-06-02T10:11:27.921Z,29.42
2018-06-02T10:13:56.323Z,29.77
2018-06-02T10:16:24.091Z,29.89
2018-06-02T10:18:51.856Z,29.87
2018-06-02T10:21:20.132Z,29.23
2018-06-02T10:23:47.912Z,29.26
2018-06-02T10:26:15.824Z,29.29
2018-06-02T10:28:43.995Z,29.56
2018-06-02T10:31:11.798Z,29.75
2018-06-02T10:33:39.642Z,30.44
2018-06-02T10:36:08.162Z,29.82
2018-06-02T10:38:35.996Z,30.31
2018-06-02T10:41:04.284Z,30.90
2018-06-02T10:43:32.485Z,30.95
2018-06-02T10:46:00.449Z,31.08
2018-06-02T10:48:28.293Z,30.73
2018-06-02T10:50:56.310Z,30.90
2018-06-02T10:53:24.251Z,30.61
2018-06-02T10:55:52.100Z,30.38
2018-06-02T10:58:20.230Z,30.20
2018-06-02T11:00:48.401Z,30.08
2018-06-02T11:03:16.649Z,30.16
2018-06-02T11:05:44.493Z,30.44
2018-06-02T11:08:12.229Z,30.36
2018-06-02T11:10:40.336Z,29.70
2018-06-02T11:13:08.574Z,30.26
2018-06-02T11:15:36.371Z,30.58
2018-06-02T11:18:04.555Z,30.91
2018-06-02T11:20:32.537Z,30.80
2018-06-02T11:23:00.468Z,31.04
2018-06-02T11:25:28.412Z,30.62
2018-06-02T11:27:56.814Z,30.45
2018-06-02T11:30:24.590Z,30.77
2018-06-02T11:32:52.554Z,30.76
2018-06-02T11:35:20.929Z,30.53
2018-06-02T11:37:48.722Z,30.44
2018-06-02T11:40:17.070Z,30.29
2018-06-02T11:42:45.625Z,29.96
2018-06-02T11:45:13.558Z,29.87
2018-06-02T11:47:41.650Z,29.96
2018-06-02T11:50:09.980Z,30.15
2018-06-02T11:52:38.407Z,30.28
2018-06-02T11:55:06.278Z,30.40
2018-06-02T11:57:34.106Z,30.21
2018-06-02T12:00:03.408Z,30.81
2018-06-02T12:02:31.402Z,30.78
2018-06-02T12:04:59.423Z,30.87
2018-06-02T12:07:27.653Z,30.36
2018-06-02T12:09:55.445Z,30.51
2018-06-02T12:12:23.626Z,30.37
2018-06-02T12:14:52.218Z,30.19
2018-06-02T12:17:20.182Z,29.86
2018-06-02T12:19:48.590Z,30.00
2018-06-02T12:22:16.663Z,29.87
2018-06-02T12:24:44.611Z,29.97
2018-06-02T12:27:12.535Z,30.75
2018-06-02T12:29:40.726Z,31.60
2018-06-02T12:32:08.752Z,31.72
2018-06-02T12:34:36.888Z,31.33
2018-06-02T12:37:05.047Z,31.46
2018-06-02T12:39:32.828Z,31.05
2018-06-02T12:42:00.898Z,30.79
2018-06-02T12:44:29.919Z,30.75
2018-06-02T12:46:57.744Z,30.72
2018-06-02T12:49:26.548Z,30.79
2018-06-02T12:51:54.909Z,30.83
2018-06-02T12:54:22.760Z,30.61
2018-06-02T12:56:51.035Z,30.39
2018-06-02T12:59:19.441Z,30.74
2018-06-02T13:01:47.534Z,30.38
2018-06-02T13:04:16.097Z,29.89
2018-06-02T13:06:43.986Z,29.62
2018-06-02T13:09:11.906Z,29.09
2018-06-02T13:11:39.988Z,29.14
2018-06-02T13:14:08.178Z,29.03
2018-06-02T13:16:35.930Z,28.98
2018-06-02T13:19:03.988Z,28.97
2018-06-02T13:21:32.012Z,29.16
2018-06-02T13:23:59.838Z,29.13
2018-06-02T13:26:27.946Z,29.61
2018-06-02T13:28:55.965Z,29.95
2018-06-02T13:31:24.178Z,29.77
2018-06-02T13:33:52.340Z,30.07
2018-06-02T13:36:20.557Z,29.98
2018-06-02T13:38:48.478Z,30.09
2018-06-02T13:41:16.847Z,30.09
2018-06-02T13:43:46.060Z,29.90
2018-06-02T13:46:14.030Z,29.74
2018-06-02T13:48:46.838Z,30.16
2018-06-02T13:51:14.775Z,30.20
2018-06-02T13:53:42.757Z,30.48
2018-06-02T13:56:10.907Z,30.54
2018-06-02T13:58:39.854Z,30.68
2018-06-02T14:01:07.861Z,30.67
2018-06-02T14:03:36.064Z,30.32
2018-06-02T14:06:04.094Z,31.03
2018-06-02T14:08:32.345Z,31.24
2018-06-02T14:11:00.357Z,30.67
2018-06-02T14:13:28.679Z,29.64
2018-06-02T14:15:56.562Z,28.84
2018-06-02T14:18:25.550Z,28.46
2018-06-02T14:20:53.750Z,28.47
2018-06-02T14:23:22.702Z,28.52
2018-06-02T14:25:51.157Z,28.67
2018-06-02T14:28:19.413Z,28.69
2018-06-02T14:30:48.267Z,28.99
2018-06-02T14:33:16.343Z,29.50
2018-06-02T14:35:44.594Z,29.62
2018-06-02T14:38:12.907Z,29.62
2018-06-02T14:40:41.061Z,29.74
2018-06-02T14:43:09.865Z,29.53
2018-06-02T14:45:37.914Z,29.53
2018-06-02T14:48:06.677Z,29.92
2018-06-02T14:50:35.283Z,30.22
2018-06-02T14:53:03.350Z,30.25
2018-06-02T14:55:31.198Z,30.63
2018-06-02T14:57:59.101Z,31.00
2018-06-02T15:00:27.579Z,30.71
2018-06-02T15:02:55.722Z,31.06
2018-06-02T15:05:23.869Z,30.79
2018-06-02T15:07:51.900Z,30.35
2018-06-02T15:10:19.852Z,31.06
2018-06-02T15:12:48.094Z,31.13
2018-06-02T15:15:16.459Z,30.98
2018-06-02T15:17:44.447Z,30.68
2018-06-02T15:20:12.333Z,30.55
2018-06-02T15:22:40.530Z,30.70
2018-06-02T15:25:08.580Z,30.89
2018-06-02T15:27:36.884Z,30.85
2018-06-02T15:30:05.171Z,31.40
2018-06-02T15:32:34.481Z,31.56
2018-06-02T15:35:02.487Z,31.60
2018-06-02T15:37:30.340Z,31.99
2018-06-02T15:39:58.741Z,32.17
2018-06-02T15:42:26.806Z,32.04
2018-06-02T15:44:54.621Z,32.56
2018-06-02T15:47:22.895Z,32.69
2018-06-02T15:49:51.206Z,33.26
2018-06-02T15:52:19.237Z,33.31
2018-06-02T15:54:47.507Z,33.29
2018-06-02T15:57:15.316Z,33.57
2018-06-02T15:59:44.465Z,33.77
2018-06-02T16:02:12.896Z,33.70
2018-06-02T16:04:40.932Z,34.02
2018-06-02T16:07:09.049Z,33.95
2018-06-02T16:09:37.138Z,34.46
2018-06-02T16:12:06.045Z,34.63
2018-06-02T16:14:34.665Z,34.61
2018-06-02T16:17:02.509Z,34.49
2018-06-02T16:19:30.554Z,34.81
2018-06-02T16:21:58.891Z,34.73
2018-06-02T16:24:27.120Z,34.42
2018-06-02T16:26:55.139Z,33.88
2018-06-02T16:29:23.039Z,33.88
2018-06-02T16:31:51.233Z,33.96
2018-06-02T16:34:19.286Z,33.69
2018-06-02T16:36:47.323Z,33.64
2018-06-02T16:39:17.383Z,34.02
2018-06-02T16:41:45.397Z,34.49
2018-06-02T16:44:13.539Z,34.38
2018-06-02T16:46:41.763Z,34.78
2018-06-02T16:49:09.748Z,34.49
2018-06-02T16:51:38.602Z,34.25
2018-06-02T16:54:06.816Z,34.37
2018-06-02T16:56:34.702Z,34.50
2018-06-02T16:59:02.940Z,34.62
2018-06-02T17:01:30.935Z,34.41
2018-06-02T17:03:59.286Z,34.49
2018-06-02T17:06:27.241Z,34.62
2018-06-02T17:08:55.816Z,34.59
2018-06-02T17:11:24.720Z,34.28
2018-06-02T17:13:52.897Z,34.56
2018-06-02T17:16:21.154Z,34.23
2018-06-02T17:18:49.769Z,34.45
2018-06-02T17:21:17.589Z,34.70
2018-06-02T17:23:47.024Z,35.52
2018-06-02T17:26:14.816Z,35.93
2018-06-02T17:28:42.840Z,36.49
2018-06-02T17:31:10.819Z,36.99
2018-06-02T17:33:38.689Z,36.78
2018-06-02T17:36:06.573Z,36.93
2018-06-02T17:38:35.975Z,37.01
2018-06-02T17:41:04.291Z,37.39
2018-06-02T17:43:32.179Z,37.96
2018-06-02T17:46:00.210Z,37.90
2018-06-02T17:48:28.556Z,37.61
2018-06-02T17:50:56.916Z,37.54
2018-06-02T17:53:26.031Z,37.43
2018-06-02T17:55:54.050Z,37.26
2018-06-02T17:58:22.939Z,37.14
2018-06-02T18:00:51.086Z,36.94
2018-06-02T18:03:20.055Z,36.73
2018-06-02T18:05:48.230Z,36.56
2018-06-02T18:08:16.096Z,36.99
2018-06-02T18:10:44.259Z,37.26
2018-06-02T18:13:12.070Z,36.83
2018-06-02T18:15:40.721Z,36.52
2018-06-02T18:18:08.911Z,36.36
2018-06-02T18:20:37.500Z,36.30
2018-06-02T18:23:05.525Z,35.94
2018-06-02T18:25:33.625Z,35.68
2018-06-02T18:28:01.890Z,35.82
2018-06-02T18:30:29.735Z,36.00
2018-06-02T18:32:57.737Z,35.93
2018-06-02T18:35:25.801Z,35.67
2018-06-02T18:37:53.968Z,35.86
2018-06-02T18:40:22.655Z,35.87
2018-06-02T18:42:51.453Z,35.40
2018-06-02T18:45:19.634Z,35.43
2018-06-02T18:47:47.794Z,35.47
2018-06-02T18:50:15.940Z,35.38
2018-06-02T18:52:43.836Z,35.55
2018-06-02T18:55:11.878Z,35.59
2018-06-02T18:57:40.691Z,35.70
2018-06-02T19:00:09.592Z,36.09
2018-06-02T19:02:37.425Z,36.37
2018-06-02T19:05:05.517Z,36.51
2018-06-02T19:07:33.467Z,36.74
2018-06-02T19:10:02.255Z,36.73
2018-06-02T19:12:31.886Z,36.72
2018-06-02T19:15:00.566Z,36.75
2018-06-02T19:17:28.484Z,36.80
2018-06-02T19:19:56.713Z,37.00
2018-06-02T19:22:26.619Z,37.18
2018-06-02T19:24:56.309Z,37.61
2018-06-02T19:27:24.542Z,37.54
2018-06-02T19:29:52.891Z,37.48
2018-06-02T19:32:21.517Z,37.37
2018-06-02T19:34:49.395Z,37.57
2018-06-02T19:37:18.334Z,37.70
2018-06-02T19:39:46.652Z,37.68
2018-06-02T19:42:15.501Z,37.75
2018-06-02T19:44:43.672Z,37.91
2018-06-02T19:47:12.461Z,38.08
2018-06-02T19:49:40.468Z,38.71
2018-06-02T19:52:08.608Z,39.12
2018-06-02T19:54:36.675Z,39.18
2018-06-02T19:57:04.952Z,39.17
2018-06-02T19:59:33.250Z,38.99
2018-06-02T20:02:01.070Z,39.44
2018-06-02T20:07:23.034Z,39.20
2018-06-02T20:09:50.889Z,39.37
2018-06-02T20:12:18.722Z,39.59
2018-06-02T20:14:47.028Z,40.13
2018-06-02T20:17:14.911Z,40.18
2018-06-02T20:19:42.764Z,40.15
2018-06-02T20:22:11.085Z,40.18
2018-06-02T20:24:39.026Z,40.63
2018-06-02T20:27:06.892Z,40.75
2018-06-02T20:29:35.859Z,41.03
2018-06-02T20:32:03.723Z,41.19
2018-06-02T20:34:32.028Z,41.25
2018-06-02T20:37:00.328Z,41.37
2018-06-02T20:39:28.174Z,41.25
2018-06-02T20:41:56.241Z,41.26
2018-06-02T20:44:24.520Z,41.17
2018-06-02T20:46:52.377Z,41.30
2018-06-02T20:49:20.185Z,41.33
2018-06-02T20:51:48.525Z,41.58
2018-06-02T20:54:16.323Z,41.67
2018-06-02T20:56:44.236Z,41.78
2018-06-02T20:59:12.532Z,42.04
2018-06-02T21:01:40.810Z,42.03
2018-06-02T21:04:09.964Z,41.95
2018-06-02T21:06:39.076Z,42.18
2018-06-02T21:09:07.385Z,42.37
2018-06-02T21:11:35.555Z,42.45
2018-06-02T21:14:03.829Z,42.45
2018-06-02T21:16:32.159Z,42.60
2018-06-02T21:19:00.074Z,42.71
2018-06-02T21:21:28.402Z,42.92
2018-06-02T21:23:56.449Z,42.99
2018-06-02T21:26:24.319Z,43.24
2018-06-02T21:28:52.719Z,43.42
2018-06-02T21:31:20.958Z,43.48
2018-06-02T21:33:49.717Z,43.61
2018-06-02T21:36:17.902Z,43.77
2018-06-02T21:38:45.977Z,43.92
2018-06-02T21:41:13.747Z,44.42
2018-06-02T21:43:42.018Z,44.83
2018-06-02T21:46:11.215Z,45.06
2018-06-02T21:48:39.081Z,45.19
2018-06-02T21:51:07.747Z,45.26
2018-06-02T21:53:35.939Z,45.46
2018-06-02T21:56:03.732Z,45.67
2018-06-02T21:58:31.976Z,45.76
2018-06-02T22:01:00.610Z,45.79
2018-06-02T22:03:28.742Z,45.83
2018-06-02T22:05:56.907Z,45.83
2018-06-02T22:08:24.772Z,46.04
2018-06-02T22:10:52.843Z,46.39
2018-06-02T22:13:20.914Z,46.48
2018-06-02T22:15:49.089Z,46.57
2018-06-02T22:18:17.367Z,46.90
2018-06-02T22:20:45.242Z,47.00
2018-06-02T22:23:13.208Z,47.21
2018-06-02T22:25:41.276Z,47.22
2018-06-02T22:28:09.452Z,47.21
2018-06-02T22:30:37.318Z,47.17
2018-06-02T22:33:05.513Z,47.29
2018-06-02T22:35:35.343Z,47.45
2018-06-02T22:38:03.209Z,47.51
2018-06-02T22:40:31.248Z,47.71
2018-06-02T22:42:59.259Z,47.90
2018-06-02T22:45:27.390Z,48.13
2018-06-02T22:47:56.047Z,48.25
2018-06-02T22:50:24.133Z,48.33
2018-06-02T22:52:52.625Z,48.37
2018-06-02T22:55:25.991Z,48.45
2018-06-02T22:57:54.507Z,48.65
2018-06-02T23:00:22.380Z,48.85
2018-06-02T23:02:51.624Z,48.92
2018-06-02T23:05:19.559Z,48.97
2018-06-02T23:07:47.465Z,48.99
2018-06-02T23:10:16.074Z,49.33
2018-06-02T23:12:43.922Z,49.41
2018-06-02T23:15:11.705Z,49.40
2018-06-02T23:17:40.035Z,49.58
2018-06-02T23:20:07.948Z,49.76
2018-06-02T23:22:40.029Z,49.99
2018-06-02T23:25:08.326Z,50.15
2018-06-02T23:27:36.155Z,50.28
2018-06-02T23:30:04.029Z,50.55
2018-06-02T23:32:32.327Z,50.48
2018-06-02T23:35:00.269Z,50.42
2018-06-02T23:37:28.374Z,50.62
2018-06-02T23:39:56.410Z,50.83
2018-06-02T23:42:24.242Z,51.11
2018-06-02T23:44:52.143Z,51.15
2018-06-02T23:47:20.213Z,51.21
2018-06-02T23:49:48.001Z,51.54
2018-06-02T23:52:16.151Z,51.77
2018-06-02T23:54:44.327Z,52.05
2018-06-02T23:57:12.293Z,52.33
2018-06-02T23:59:40.182Z,52.24
